Time;durP1;ratioP1;P1;durP2;ratioP2;P2;SDS_P1;SDS_P2;PMS_P1;PMS_P2;Temp;Humidity;BMP_temperature;BMP_pressure;BME280_temperature;BME280_humidity;BME280_pressure;Samples;Min_cycle;Max_cycle;Signal;HPM_P1;HPM_P2
2023/08/02 00:00:14;;;;;;;7.65;3.47;;;;;;;17.62;63.14;99668.25;688173;28;1063;-75
2023/08/02 00:00:36;;;;;;;7.53;3.40;;;;;;;17.58;62.93;99651.59;683318;28;1991;-76
2023/08/02 00:00:57;;;;;;;8.95;3.60;;;;;;;17.52;63.04;99647.31;682803;28;792;-75
2023/08/02 00:01:17;;;;;;;10.03;3.50;;;;;;;17.53;63.15;99643.78;683428;28;1179;-76
2023/08/02 00:01:44;;;;;;;9.50;3.30;;;;;;;17.54;62.90;99640.25;689020;28;1028;-75
2023/08/02 00:02:05;;;;;;;9.25;3.40;;;;;;;17.58;63.16;99642.84;685289;28;1597;-76
2023/08/02 00:02:25;;;;;;;7.77;3.40;;;;;;;17.57;62.97;99644.59;686158;28;1220;-75
2023/08/02 00:02:46;;;;;;;7.70;3.50;;;;;;;17.64;63.13;99650.66;687950;28;1078;-76
2023/08/02 00:03:07;;;;;;;6.82;3.40;;;;;;;17.58;63.03;99640.22;685434;28;1101;-75
2023/08/02 00:03:27;;;;;;;7.85;3.50;;;;;;;17.62;63.24;99647.16;682363;28;1458;-75
2023/08/02 00:03:48;;;;;;;10.53;3.70;;;;;;;17.62;63.00;99641.88;685162;28;1029;-75
2023/08/02 00:04:09;;;;;;;11.23;3.80;;;;;;;17.58;63.08;99637.56;687949;28;1047;-75
2023/08/02 00:04:30;;;;;;;10.45;3.90;;;;;;;17.62;63.12;99644.50;684594;28;1811;-76
2023/08/02 00:04:50;;;;;;;7.57;3.50;;;;;;;17.59;62.89;99634.03;681602;29;1211;-75
2023/08/02 00:05:11;;;;;;;7.67;3.30;;;;;;;17.51;63.23;99624.50;680411;29;1093;-75
2023/08/02 00:05:32;;;;;;;9.15;3.40;;;;;;;17.53;63.05;99627.97;684665;28;1382;-75
2023/08/02 00:05:56;;;;;;;9.13;3.40;;;;;;;17.54;63.18;99632.34;685207;28;819;-75
2023/08/02 00:06:17;;;;;;;9.10;3.35;;;;;;;17.52;63.08;99625.38;685094;28;1167;-75
2023/08/02 00:06:38;;;;;;;9.87;3.70;;;;;;;17.60;63.20;99646.31;679803;29;2002;-76
2023/08/02 00:06:59;;;;;;;11.30;3.90;;;;;;;17.59;63.29;99641.94;677479;29;1247;-76
2023/08/02 00:07:19;;;;;;;10.32;4.03;;;;;;;17.57;63.21;99636.69;678088;29;1183;-76
2023/08/02 00:07:40;;;;;;;9.50;3.90;;;;;;;17.57;63.20;99643.75;677281;29;1380;-76
2023/08/02 00:08:01;;;;;;;8.70;3.80;;;;;;;17.55;63.25;99641.13;682762;28;1035;-76
2023/08/02 00:08:22;;;;;;;7.10;3.45;;;;;;;17.49;63.26;99635.97;681211;28;1207;-76
2023/08/02 00:08:43;;;;;;;7.00;3.40;;;;;;;17.54;63.18;99648.16;682869;28;1251;-75
2023/08/02 00:09:04;;;;;;;6.00;3.40;;;;;;;17.47;63.35;99628.09;682779;28;1088;-76
2023/08/02 00:09:24;;;;;;;5.75;3.17;;;;;;;17.46;63.39;99631.59;679150;29;1448;-76
2023/08/02 00:09:45;;;;;;;7.93;3.30;;;;;;;17.46;63.38;99636.88;684605;28;2023;-76
2023/08/02 00:10:06;;;;;;;7.70;3.40;;;;;;;17.43;63.48;99631.69;684493;28;1029;-75
2023/08/02 00:10:26;;;;;;;8.80;3.50;;;;;;;17.38;63.28;99631.78;685405;28;1462;-75
2023/08/02 00:10:47;;;;;;;7.10;3.50;;;;;;;17.40;63.54;99631.75;680024;28;1265;-76
2023/08/02 00:11:17;;;;;;;9.85;3.70;;;;;;;17.43;63.46;99636.94;677921;29;1056;-75
2023/08/02 00:11:38;;;;;;;10.85;3.67;;;;;;;17.35;63.52;99621.28;682563;28;1075;-75
2023/08/02 00:11:58;;;;;;;9.18;3.25;;;;;;;17.41;63.90;99633.47;680442;29;1289;-76
2023/08/02 00:12:19;;;;;;;8.40;3.30;;;;;;;17.37;63.80;99632.66;681969;29;1040;-76
2023/08/02 00:12:40;;;;;;;7.85;3.33;;;;;;;17.39;63.75;99632.63;685181;28;1092;-75
2023/08/02 00:13:00;;;;;;;9.23;3.50;;;;;;;17.36;63.85;99637.97;680234;29;749;-76
2023/08/02 00:13:21;;;;;;;8.27;3.40;;;;;;;17.34;63.92;99632.72;684921;28;1820;-76
2023/08/02 00:13:42;;;;;;;6.07;3.05;;;;;;;17.38;64.02;99634.41;685216;28;1040;-76
2023/08/02 00:14:03;;;;;;;6.93;3.28;;;;;;;17.33;64.07;99630.97;685453;28;1044;-76
2023/08/02 00:14:24;;;;;;;8.50;3.72;;;;;;;17.30;63.91;99625.78;685106;28;1188;-76
2023/08/02 00:14:44;;;;;;;8.55;3.80;;;;;;;17.32;63.97;99628.38;685146;28;1504;-76
2023/08/02 00:15:05;;;;;;;7.15;3.80;;;;;;;17.34;64.18;99634.50;685096;28;997;-75
2023/08/02 00:15:26;;;;;;;7.20;3.60;;;;;;;17.30;64.01;99624.88;684458;28;1244;-77
2023/08/02 00:15:47;;;;;;;8.02;3.80;;;;;;;17.40;64.22;99642.28;681252;28;1062;-75
2023/08/02 00:16:08;;;;;;;7.20;3.70;;;;;;;17.31;64.01;99626.63;682846;29;969;-76
2023/08/02 00:16:29;;;;;;;6.97;3.53;;;;;;;17.26;64.15;99622.31;686331;28;1169;-76
2023/08/02 00:16:50;;;;;;;6.38;3.22;;;;;;;17.34;64.23;99634.50;684999;28;1533;-75
2023/08/02 00:17:11;;;;;;;8.63;3.20;;;;;;;17.28;64.26;99624.06;688128;28;1312;-75
2023/08/02 00:17:32;;;;;;;8.90;3.70;;;;;;;17.26;64.27;99619.69;687697;28;1286;-76
2023/08/02 00:17:52;;;;;;;9.98;4.00;;;;;;;17.26;64.22;99630.22;688238;28;902;-75
2023/08/02 00:18:13;;;;;;;8.13;4.10;;;;;;;17.35;64.37;99649.41;685262;28;1068;-76
2023/08/02 00:18:34;;;;;;;7.35;3.60;;;;;;;17.23;64.36;99630.25;684731;28;1456;-76
2023/08/02 00:18:54;;;;;;;8.10;3.60;;;;;;;17.20;64.54;99625.03;682752;29;760;-75
2023/08/02 00:19:15;;;;;;;11.07;3.70;;;;;;;17.29;64.31;99638.97;683441;28;1907;-75
2023/08/02 00:19:36;;;;;;;13.90;3.80;;;;;;;17.20;64.47;99630.28;682951;28;999;-76
2023/08/02 00:19:57;;;;;;;15.65;3.90;;;;;;;17.23;64.45;99632.91;685713;28;1180;-76
2023/08/02 00:20:18;;;;;;;11.70;3.80;;;;;;;17.16;64.54;99626.00;685105;28;1187;-75
2023/08/02 00:20:39;;;;;;;9.95;3.60;;;;;;;17.20;64.60;99630.28;685342;28;949;-76
2023/08/02 00:21:00;;;;;;;7.07;3.30;;;;;;;17.14;64.55;99625.13;687372;28;1922;-75
2023/08/02 00:21:21;;;;;;;8.98;3.30;;;;;;;17.14;64.68;99619.84;687644;28;1122;-76
2023/08/02 00:21:42;;;;;;;8.52;3.20;;;;;;;17.11;64.65;99614.66;690247;28;1260;-75
2023/08/02 00:22:03;;;;;;;8.75;3.30;;;;;;;17.07;64.78;99612.94;689447;28;1595;-76
2023/08/02 00:22:23;;;;;;;8.77;3.20;;;;;;;17.08;64.64;99614.72;690326;28;1149;-76
2023/08/02 00:22:44;;;;;;;7.93;3.20;;;;;;;17.14;64.82;99627.75;685359;28;949;-76
2023/08/02 00:23:06;;;;;;;7.03;3.10;;;;;;;17.04;64.78;99613.00;688060;28;1169;-76
2023/08/02 00:23:26;;;;;;;8.15;3.08;;;;;;;17.09;65.00;99627.00;685011;28;1357;-75
2023/08/02 00:23:47;;;;;;;8.20;3.10;;;;;;;17.03;65.02;99614.75;682549;29;1064;-76
2023/08/02 00:24:08;;;;;;;10.02;3.20;;;;;;;17.04;65.08;99619.16;688916;28;1861;-75
2023/08/02 00:24:29;;;;;;;9.52;3.10;;;;;;;16.99;65.08;99624.50;687650;28;1190;-75
2023/08/02 00:24:49;;;;;;;9.40;3.23;;;;;;;16.98;65.16;99614.00;688140;28;1219;-76
2023/08/02 00:25:10;;;;;;;7.88;3.20;;;;;;;16.99;65.24;99618.38;690169;28;1432;-75
2023/08/02 00:25:31;;;;;;;6.60;3.38;;;;;;;17.04;65.27;99624.44;687109;28;1595;-76
2023/08/02 00:25:51;;;;;;;7.35;3.40;;;;;;;17.05;65.26;99625.28;684831;28;1152;-75
2023/08/02 00:26:12;;;;;;;8.63;3.67;;;;;;;17.02;65.24;99618.31;688482;28;1235;-76
2023/08/02 00:26:33;;;;;;;8.40;3.60;;;;;;;17.02;65.10;99625.34;687630;28;1874;-76
2023/08/02 00:26:54;;;;;;;9.20;3.72;;;;;;;17.03;65.36;99625.31;685427;28;826;-76
2023/08/02 00:27:17;;;;;;;7.68;3.40;;;;;;;17.02;65.37;99620.94;686108;28;1027;-75
2023/08/02 00:27:38;;;;;;;7.93;3.50;;;;;;;17.05;65.49;99622.66;687873;28;1031;-76
2023/08/02 00:27:59;;;;;;;6.95;3.58;;;;;;;17.11;65.39;99625.19;685417;28;1249;-75
2023/08/02 00:28:19;;;;;;;6.85;3.70;;;;;;;17.07;65.05;99626.13;682541;29;1091;-75
2023/08/02 00:28:41;;;;;;;6.40;3.65;;;;;;;17.06;65.25;99620.00;684532;28;1265;-76
2023/08/02 00:29:03;;;;;;;6.28;3.40;;;;;;;17.09;65.35;99622.56;682755;28;1126;-75
2023/08/02 00:29:23;;;;;;;7.25;3.35;;;;;;;17.10;65.13;99618.19;681440;29;1160;-75
2023/08/02 00:29:44;;;;;;;7.88;3.60;;;;;;;17.14;65.32;99625.13;682619;28;1051;-76
2023/08/02 00:30:05;;;;;;;7.57;3.60;;;;;;;17.10;65.21;99616.41;682504;29;1151;-76
2023/08/02 00:30:29;;;;;;;7.50;3.60;;;;;;;17.15;65.13;99624.22;685535;28;1180;-76
2023/08/02 00:30:49;;;;;;;7.40;3.30;;;;;;;17.13;65.12;99620.75;687770;28;903;-76
2023/08/02 00:31:10;;;;;;;8.55;3.20;;;;;;;17.16;65.15;99614.56;690593;28;1102;-75
2023/08/02 00:31:31;;;;;;;8.07;3.30;;;;;;;17.16;65.15;99618.09;687749;28;1221;-76
2023/08/02 00:31:52;;;;;;;7.03;3.25;;;;;;;17.19;65.13;99617.13;680029;29;807;-76
2023/08/02 00:32:12;;;;;;;6.03;3.30;;;;;;;17.21;65.17;99618.88;682685;28;1199;-75
2023/08/02 00:32:33;;;;;;;7.35;3.38;;;;;;;17.21;65.04;99616.25;682475;29;1107;-76
2023/08/02 00:32:54;;;;;;;8.15;3.70;;;;;;;17.20;65.12;99614.47;681558;29;1615;-75
2023/08/02 00:33:15;;;;;;;9.73;3.70;;;;;;;17.30;65.06;99624.88;681821;29;1161;-76
2023/08/02 00:33:35;;;;;;;9.40;3.72;;;;;;;17.26;65.03;99624.06;679993;28;1265;-76
2023/08/02 00:33:57;;;;;;;9.20;3.60;;;;;;;17.27;65.14;99620.53;687535;28;1054;-75
2023/08/02 00:34:17;;;;;;;7.82;3.50;;;;;;;17.20;64.96;99611.84;686109;28;1399;-75
2023/08/02 00:34:38;;;;;;;6.90;3.20;;;;;;;17.24;65.04;99620.59;685219;28;1052;-76
2023/08/02 00:34:59;;;;;;;9.18;3.20;;;;;;;17.23;64.94;99611.81;682451;28;2009;-76
2023/08/02 00:35:19;;;;;;;9.93;3.30;;;;;;;17.23;64.99;99601.25;682499;28;1111;-75
2023/08/02 00:35:48;;;;;;;12.07;3.50;;;;;;;17.24;64.85;99613.56;681882;28;918;-76
2023/08/02 00:36:08;;;;;;;8.75;3.53;;;;;;;17.28;64.92;99622.28;680124;29;958;-75
2023/08/02 00:36:29;;;;;;;7.20;3.40;;;;;;;17.30;64.93;99619.63;685505;28;1257;-76
2023/08/02 00:36:51;;;;;;;6.85;3.50;;;;;;;17.35;64.87;99633.59;689169;28;1104;-75
2023/08/02 00:37:12;;;;;;;8.48;3.40;;;;;;;17.32;64.91;99625.75;685591;28;1369;-76
2023/08/02 00:37:33;;;;;;;9.38;3.38;;;;;;;17.30;64.66;99625.78;690460;28;1241;-76
2023/08/02 00:37:54;;;;;;;8.00;3.40;;;;;;;17.27;64.73;99620.53;687738;28;1044;-75
2023/08/02 00:38:15;;;;;;;7.47;3.40;;;;;;;17.23;64.99;99605.69;680414;28;1140;-75
2023/08/02 00:38:35;;;;;;;6.78;3.30;;;;;;;17.25;64.82;99611.78;684898;28;2014;-76
2023/08/02 00:38:57;;;;;;;6.75;3.30;;;;;;;17.24;64.95;99610.94;690705;28;1422;-75
2023/08/02 00:39:19;;;;;;;6.70;3.60;;;;;;;17.29;64.82;99623.16;686617;28;1976;-76
2023/08/02 00:39:39;;;;;;;6.88;3.70;;;;;;;17.28;64.75;99632.84;689679;28;1316;-76
2023/08/02 00:40:00;;;;;;;9.67;3.90;;;;;;;17.30;64.66;99627.53;682604;28;1127;-76
2023/08/02 00:40:24;;;;;;;11.43;3.70;;;;;;;17.30;64.87;99622.25;684985;28;1283;-76
2023/08/02 00:40:45;;;;;;;13.13;3.88;;;;;;;17.34;64.77;99626.59;687793;28;1985;-76
2023/08/02 00:41:07;;;;;;;10.48;4.00;;;;;;;17.32;64.81;99612.56;685335;28;1250;-76
2023/08/02 00:41:28;;;;;;;8.98;4.10;;;;;;;17.32;64.67;99617.84;683339;28;1310;-75
2023/08/02 00:41:48;;;;;;;8.15;3.95;;;;;;;17.32;64.82;99612.56;682669;28;1234;-76
2023/08/02 00:42:09;;;;;;;8.50;3.70;;;;;;;17.36;64.88;99616.88;678037;28;1158;-76
2023/08/02 00:42:30;;;;;;;7.83;3.67;;;;;;;17.42;64.82;99629.94;686974;28;1181;-76
2023/08/02 00:43:00;;;;;;;7.22;3.55;;;;;;;17.37;64.72;99614.22;686766;28;1164;-75
2023/08/02 00:43:21;;;;;;;8.25;3.92;;;;;;;17.38;64.72;99617.69;689326;28;1166;-76
2023/08/02 00:43:43;;;;;;;8.95;4.03;;;;;;;17.38;64.73;99617.69;687989;28;1477;-76
2023/08/02 00:44:04;;;;;;;10.68;4.13;;;;;;;17.38;64.71;99610.66;685256;28;1509;-76
2023/08/02 00:44:24;;;;;;;9.73;3.60;;;;;;;17.36;64.76;99612.47;682826;28;1147;-76
2023/08/02 00:44:45;;;;;;;10.50;3.60;;;;;;;17.47;64.68;99621.94;682323;28;1595;-76
2023/08/02 00:45:06;;;;;;;9.27;3.85;;;;;;;17.37;64.63;99605.41;685296;28;1181;-76
2023/08/02 00:45:27;;;;;;;10.35;3.90;;;;;;;17.44;64.50;99614.09;685191;28;1154;-75
2023/08/02 00:45:48;;;;;;;10.18;3.80;;;;;;;17.44;64.78;99617.59;681562;28;1604;-75
2023/08/02 00:46:10;;;;;;;7.75;3.60;;;;;;;17.45;64.52;99616.69;682638;28;1016;-76
2023/08/02 00:46:33;;;;;;;7.07;3.60;;;;;;;17.43;64.50;99610.59;685170;28;1195;-75
2023/08/02 00:46:54;;;;;;;7.90;3.80;;;;;;;17.44;64.40;99612.31;678179;29;1732;-76
2023/08/02 00:47:14;;;;;;;7.80;3.77;;;;;;;17.44;64.30;99609.69;685136;28;1237;-76
2023/08/02 00:47:35;;;;;;;6.95;3.83;;;;;;;17.46;64.54;99609.66;683377;28;1103;-76
2023/08/02 00:47:57;;;;;;;7.40;3.58;;;;;;;17.46;64.24;99618.44;682689;28;878;-76
2023/08/02 00:48:19;;;;;;;8.73;3.65;;;;;;;17.45;64.38;99614.06;683474;28;1172;-75
2023/08/02 00:48:43;;;;;;;10.05;3.33;;;;;;;17.46;64.27;99605.25;688000;28;1131;-78
2023/08/02 00:49:03;;;;;;;8.85;3.60;;;;;;;17.49;64.22;99606.94;686746;28;1982;-76
2023/08/02 00:49:24;;;;;;;9.03;3.60;;;;;;;17.51;64.26;99613.94;687573;28;1167;-75
2023/08/02 00:49:45;;;;;;;7.72;3.70;;;;;;;17.53;64.20;99614.78;688375;28;1050;-76
2023/08/02 00:50:06;;;;;;;7.93;3.60;;;;;;;17.50;64.58;99609.56;688175;28;1197;-76
2023/08/02 00:50:29;;;;;;;10.88;3.75;;;;;;;17.48;64.29;99603.47;682324;28;1589;-76
2023/08/02 00:50:50;;;;;;;11.40;4.00;;;;;;;17.50;64.10;99608.69;685281;28;1088;-75
2023/08/02 00:51:17;;;;;;;9.10;4.00;;;;;;;17.44;64.30;99601.78;685183;28;1048;-76
2023/08/02 00:51:38;;;;;;;7.97;3.75;;;;;;;17.46;64.56;99610.50;687927;28;1005;-75
2023/08/02 00:51:59;;;;;;;6.70;3.83;;;;;;;17.46;64.45;99609.66;685362;28;788;-76
2023/08/02 00:52:19;;;;;;;6.03;3.70;;;;;;;17.47;64.41;99606.13;685885;28;1484;-75
2023/08/02 00:52:41;;;;;;;7.78;3.70;;;;;;;17.51;64.39;99605.16;686666;28;1080;-76
2023/08/02 00:53:02;;;;;;;9.70;3.60;;;;;;;17.39;64.55;99593.06;684756;28;1180;-76
2023/08/02 00:53:23;;;;;;;10.27;3.88;;;;;;;17.40;64.63;99610.66;679540;29;1186;-76
2023/08/02 00:53:45;;;;;;;7.38;3.80;;;;;;;17.42;64.78;99611.47;679818;29;1161;-76
2023/08/02 00:54:06;;;;;;;7.88;3.90;;;;;;;17.33;65.05;99603.75;684129;28;1244;-75
2023/08/02 00:54:27;;;;;;;9.77;3.60;;;;;;;17.36;65.01;99616.88;683909;28;1308;-77
2023/08/02 00:54:48;;;;;;;10.23;3.63;;;;;;;17.31;65.06;99606.41;684994;28;1188;-76
2023/08/02 00:55:09;;;;;;;8.98;3.70;;;;;;;17.37;65.01;99622.13;685238;28;1979;-76
2023/08/02 00:55:30;;;;;;;7.70;4.17;;;;;;;17.41;64.76;99622.94;684487;28;1487;-78
2023/08/02 00:55:50;;;;;;;8.90;4.53;;;;;;;17.36;65.08;99601.94;679274;29;1013;-76
2023/08/02 00:56:15;;;;;;;9.05;4.25;;;;;;;17.44;65.02;99622.88;677292;29;1125;-75
2023/08/02 00:56:36;;;;;;;11.30;3.97;;;;;;;17.29;65.21;99599.41;676918;29;1463;-76
2023/08/02 00:56:57;;;;;;;10.25;3.47;;;;;;;17.33;65.04;99620.44;683603;28;1437;-75
2023/08/02 00:57:17;;;;;;;12.68;3.70;;;;;;;17.31;65.00;99605.53;683354;28;1161;-75
2023/08/02 00:57:38;;;;;;;9.33;3.50;;;;;;;17.29;65.17;99608.22;686496;28;1461;-76
2023/08/02 00:57:59;;;;;;;10.05;3.70;;;;;;;17.26;65.28;99602.97;685347;28;1083;-76
2023/08/02 00:58:20;;;;;;;7.90;3.50;;;;;;;17.26;65.29;99602.97;677563;29;1192;-76
2023/08/02 00:58:41;;;;;;;8.63;3.47;;;;;;;17.25;65.25;99599.50;681956;29;1134;-76
2023/08/02 00:59:01;;;;;;;7.75;3.30;;;;;;;17.30;65.30;99598.53;682731;28;1133;-75
2023/08/02 00:59:22;;;;;;;7.60;3.30;;;;;;;17.28;65.32;99603.84;685787;28;1946;-76
2023/08/02 00:59:43;;;;;;;6.95;3.60;;;;;;;17.28;65.21;99600.31;684945;28;1036;-76
2023/08/02 01:00:05;;;;;;;8.48;3.53;;;;;;;17.31;65.51;99605.53;682316;28;1685;-76
2023/08/02 01:00:27;;;;;;;11.05;4.07;;;;;;;17.23;65.27;99596.00;684504;28;1107;-75
2023/08/02 01:00:48;;;;;;;12.27;4.10;;;;;;;17.24;65.41;99597.75;683546;28;1064;-75
2023/08/02 01:01:09;;;;;;;9.35;4.03;;;;;;;17.28;65.41;99606.47;687543;28;1821;-76
2023/08/02 01:01:30;;;;;;;9.02;3.45;;;;;;;17.32;65.40;99613.41;685425;28;1417;-75
2023/08/02 01:01:51;;;;;;;8.45;3.50;;;;;;;17.23;65.58;99598.63;687974;28;1173;-76
2023/08/02 01:02:12;;;;;;;7.00;3.38;;;;;;;17.19;65.37;99601.31;678722;29;1485;-76
2023/08/02 01:02:32;;;;;;;6.18;3.30;;;;;;;17.23;65.53;99603.91;679806;29;1206;-75
2023/08/02 01:02:53;;;;;;;6.35;3.50;;;;;;;17.22;65.64;99612.72;682180;29;936;-76
2023/08/02 01:03:14;;;;;;;6.60;3.60;;;;;;;17.23;65.54;99609.16;679703;29;1218;-76
2023/08/02 01:03:39;;;;;;;6.35;3.55;;;;;;;17.35;65.58;99617.78;685046;28;1086;-75
2023/08/02 01:04:00;;;;;;;7.85;3.30;;;;;;;17.23;65.47;99596.00;682307;29;1271;-76
2023/08/02 01:04:21;;;;;;;9.17;3.37;;;;;;;17.24;65.37;99605.66;684614;28;1227;-75
2023/08/02 01:04:41;;;;;;;8.20;3.60;;;;;;;17.22;65.48;99599.53;685206;28;1024;-76
2023/08/02 01:05:03;;;;;;;9.60;3.40;;;;;;;17.30;65.43;99603.78;685113;28;1008;-76
2023/08/02 01:05:29;;;;;;;9.90;3.50;;;;;;;17.31;65.47;99611.69;684854;28;1263;-76
2023/08/02 01:05:58;;;;;;;8.38;3.58;;;;;;;17.26;65.54;99605.63;683952;28;2087;-76
2023/08/02 01:06:36;;;;;;;8.05;3.70;;;;;;;17.35;65.23;99607.22;683336;28;2336;-76
2023/08/02 01:07:18;;;;;;;9.80;3.70;;;;;;;17.37;65.38;99605.41;677321;29;865;-76
2023/08/02 01:07:51;;;;;;;8.68;3.72;;;;;;;17.42;65.19;99619.41;679020;29;1217;-76
2023/08/02 01:08:21;;;;;;;5.57;3.20;;;;;;;17.40;65.18;99610.66;685755;28;1103;-75
2023/08/02 01:08:46;;;;;;;5.85;3.60;;;;;;;17.30;65.10;99591.50;682955;28;1025;-76
2023/08/02 01:09:13;;;;;;;6.80;3.78;;;;;;;17.38;65.38;99612.44;688042;28;1059;-76
2023/08/02 01:09:49;;;;;;;8.60;3.40;;;;;;;17.32;65.56;99602.03;682327;29;1667;-76
2023/08/02 01:10:33;;;;;;;9.20;3.45;;;;;;;17.29;65.34;99596.78;688034;28;1692;-75
2023/08/02 01:11:14;;;;;;;9.77;3.80;;;;;;;17.22;65.65;99594.25;686299;28;1472;-75
2023/08/02 01:11:51;;;;;;;9.60;3.78;;;;;;;17.12;65.83;99606.72;687732;28;1095;-76
2023/08/02 01:12:11;;;;;;;10.10;3.92;;;;;;;17.11;66.11;99606.75;687714;28;1163;-76
2023/08/02 01:12:35;;;;;;;10.20;3.70;;;;;;;17.11;66.17;99607.59;687657;28;1021;-77
2023/08/02 01:12:58;;;;;;;8.52;3.63;;;;;;;17.10;66.39;99597.09;688027;28;776;-76
2023/08/02 01:13:20;;;;;;;8.25;3.65;;;;;;;17.04;66.37;99597.19;683918;28;1020;-75
2023/08/02 01:13:47;;;;;;;8.57;3.70;;;;;;;17.04;66.28;99598.09;685063;28;1536;-76
2023/08/02 01:14:11;;;;;;;9.93;3.78;;;;;;;17.10;66.39;99602.38;682803;28;1896;-75
2023/08/02 01:14:34;;;;;;;9.02;3.40;;;;;;;17.11;66.33;99598.84;684730;28;1021;-76
2023/08/02 01:14:57;;;;;;;7.65;3.33;;;;;;;17.17;66.17;99600.47;685322;28;1297;-75
2023/08/02 01:15:19;;;;;;;7.85;3.70;;;;;;;17.16;66.13;99591.72;687152;28;1886;-76
2023/08/02 01:15:40;;;;;;;7.78;3.90;;;;;;;17.22;65.95;99590.78;687230;28;1199;-76
2023/08/02 01:16:02;;;;;;;12.40;3.92;;;;;;;17.19;66.15;99596.03;685341;28;850;-76
2023/08/02 01:16:24;;;;;;;13.15;3.75;;;;;;;17.15;66.01;99594.38;682592;28;1161;-75
2023/08/02 01:16:48;;;;;;;12.32;3.80;;;;;;;17.13;66.12;99571.56;682561;29;1219;-76
2023/08/02 01:17:12;;;;;;;8.98;3.70;;;;;;;17.15;66.05;99584.69;682737;28;961;-76
2023/08/02 01:17:35;;;;;;;7.43;3.58;;;;;;;17.18;65.96;99592.56;681118;29;1100;-75
2023/08/02 01:17:56;;;;;;;6.85;3.47;;;;;;;17.20;65.94;99585.47;685423;28;812;-75
2023/08/02 01:18:17;;;;;;;7.80;3.60;;;;;;;17.20;66.06;99596.03;684109;28;1078;-75
2023/08/02 01:18:38;;;;;;;7.93;3.45;;;;;;;17.10;66.21;99591.81;686466;28;1391;-76
2023/08/02 01:19:08;;;;;;;7.35;3.25;;;;;;;17.12;66.24;99592.66;685322;28;1086;-75
2023/08/02 01:19:31;;;;;;;9.50;3.47;;;;;;;17.18;66.22;99584.66;679480;29;1980;-76
2023/08/02 01:19:52;;;;;;;8.23;3.42;;;;;;;17.19;66.17;99581.13;679772;29;1998;-76
2023/08/02 01:20:12;;;;;;;7.95;3.30;;;;;;;17.26;66.05;99592.44;682445;29;1482;-76
2023/08/02 01:20:33;;;;;;;7.93;3.53;;;;;;;17.22;66.12;99591.63;686927;28;1141;-75
2023/08/02 01:20:54;;;;;;;7.82;3.50;;;;;;;17.24;66.03;99589.84;683857;28;1552;-75
2023/08/02 01:21:14;;;;;;;8.88;3.58;;;;;;;17.22;66.24;99586.34;684977;28;1140;-76
2023/08/02 01:21:35;;;;;;;8.23;3.37;;;;;;;17.16;66.03;99572.41;679756;29;1067;-76
2023/08/02 01:21:56;;;;;;;9.52;3.60;;;;;;;17.16;66.16;99572.41;679642;29;1221;-76
2023/08/02 01:22:17;;;;;;;7.32;3.40;;;;;;;17.13;66.20;99570.69;684139;28;1040;-75
2023/08/02 01:22:38;;;;;;;8.40;3.50;;;;;;;17.15;66.07;99571.50;688219;28;1012;-76
2023/08/02 01:22:58;;;;;;;6.83;3.30;;;;;;;17.13;66.18;99570.69;684263;28;1451;-75
2023/08/02 01:23:21;;;;;;;7.00;3.30;;;;;;;17.16;66.11;99565.38;686346;28;1213;-76
2023/08/02 01:23:43;;;;;;;8.50;3.40;;;;;;;17.15;66.16;99571.50;682520;29;1029;-76
2023/08/02 01:24:06;;;;;;;10.32;3.42;;;;;;;17.18;66.10;99579.38;681521;29;1481;-76
2023/08/02 01:24:46;;;;;;;9.77;3.50;;;;;;;17.21;66.29;99595.16;689975;28;1059;-76
2023/08/02 01:25:08;;;;;;;10.40;3.70;;;;;;;17.13;66.37;99570.69;690628;28;1110;-76
2023/08/02 01:25:32;;;;;;;9.68;3.63;;;;;;;17.12;66.19;99572.47;685157;28;1202;-76
2023/08/02 01:26:00;;;;;;;7.05;3.40;;;;;;;17.14;66.34;99572.41;685252;28;1358;-76
2023/08/02 01:26:22;;;;;;;7.18;3.53;;;;;;;17.12;66.48;99574.22;683021;28;1742;-75
2023/08/02 01:26:48;;;;;;;6.63;3.53;;;;;;;17.11;66.16;99570.69;685145;28;997;-76
2023/08/02 01:27:18;;;;;;;7.47;3.60;;;;;;;17.05;66.39;99580.50;685299;28;1073;-74
2023/08/02 01:27:49;;;;;;;10.93;3.88;;;;;;;17.04;66.58;99576.13;682775;28;1118;-75
2023/08/02 01:28:20;;;;;;;10.88;3.78;;;;;;;16.94;66.86;99568.38;688092;28;1659;-76
2023/08/02 01:28:47;;;;;;;7.30;3.53;;;;;;;17.03;66.68;99579.66;682140;28;2025;-76
2023/08/02 01:29:12;;;;;;;6.57;3.70;;;;;;;16.91;66.83;99563.16;685075;28;1033;-76
2023/08/02 01:29:37;;;;;;;7.00;3.60;;;;;;;16.92;67.08;99578.09;679523;28;1214;-76
2023/08/02 01:30:00;;;;;;;8.60;3.45;;;;;;;16.91;66.72;99575.47;689000;28;1857;-75
2023/08/02 01:30:25;;;;;;;8.50;3.40;;;;;;;16.91;67.08;99576.31;687444;28;1075;-76
2023/08/02 01:30:49;;;;;;;7.43;3.47;;;;;;;16.80;67.04;99558.09;689454;28;1774;-75
2023/08/02 01:31:11;;;;;;;7.35;3.60;;;;;;;16.82;67.18;99560.69;693310;28;1042;-76
2023/08/02 01:31:33;;;;;;;7.88;3.50;;;;;;;16.83;67.20;99568.56;689848;28;991;-76
2023/08/02 01:31:56;;;;;;;9.07;4.00;;;;;;;16.94;67.17;99576.28;688494;28;870;-76
2023/08/02 01:32:21;;;;;;;9.88;3.85;;;;;;;16.85;67.17;99561.50;687059;28;1108;-76
2023/08/02 01:32:42;;;;;;;11.38;4.00;;;;;;;16.84;67.20;99564.19;687932;28;1091;-76
2023/08/02 01:33:04;;;;;;;10.40;3.80;;;;;;;16.84;67.26;99566.81;687621;28;1048;-76
2023/08/02 01:33:27;;;;;;;11.25;3.97;;;;;;;16.87;67.39;99569.38;689329;28;1131;-76
2023/08/02 01:33:53;;;;;;;9.95;3.80;;;;;;;16.79;67.23;99561.59;687875;28;1049;-76
2023/08/02 01:34:14;;;;;;;8.80;4.00;;;;;;;16.80;67.37;99559.84;688099;28;1180;-76
2023/08/02 01:34:35;;;;;;;9.77;4.13;;;;;;;16.83;67.36;99570.31;687957;28;1119;-76
2023/08/02 01:34:56;;;;;;;10.57;4.00;;;;;;;16.76;67.51;99551.13;685059;28;1474;-76
2023/08/02 01:35:17;;;;;;;10.13;4.00;;;;;;;16.88;67.49;99572.88;687578;28;1385;-76
2023/08/02 01:35:38;;;;;;;9.90;3.90;;;;;;;16.76;67.53;99560.78;687304;28;1072;-76
2023/08/02 01:35:59;;;;;;;7.73;3.70;;;;;;;16.74;67.52;99552.03;690583;28;1244;-76
2023/08/02 01:36:20;;;;;;;8.32;3.83;;;;;;;16.79;67.62;99556.31;689415;28;2068;-76
2023/08/02 01:36:41;;;;;;;8.93;3.80;;;;;;;16.78;67.64;99561.66;682444;28;1153;-75
2023/08/02 01:37:02;;;;;;;8.60;4.03;;;;;;;16.76;67.64;99555.50;685235;28;1149;-76
2023/08/02 01:37:23;;;;;;;8.65;3.63;;;;;;;16.86;67.71;99567.66;682098;29;1110;-76
2023/08/02 01:37:45;;;;;;;8.18;3.85;;;;;;;16.91;67.62;99564.94;682422;28;1140;-75
2023/08/02 01:38:06;;;;;;;7.70;3.65;;;;;;;16.92;67.14;99564.03;685364;28;1262;-75
2023/08/02 01:38:27;;;;;;;6.65;3.90;;;;;;;16.89;67.59;99557.03;683207;28;1049;-76
2023/08/02 01:38:47;;;;;;;6.88;3.80;;;;;;;16.86;67.33;99549.22;684866;28;1179;-75
2023/08/02 01:39:08;;;;;;;7.68;3.78;;;;;;;16.91;67.46;99560.50;685510;28;1068;-75
2023/08/02 01:39:29;;;;;;;7.25;3.50;;;;;;;16.85;67.42;99544.84;681944;29;1952;-75
2023/08/02 01:39:50;;;;;;;7.88;3.67;;;;;;;16.82;67.34;99544.88;682388;29;1244;-76
2023/08/02 01:40:11;;;;;;;8.18;3.60;;;;;;;16.84;67.46;99546.59;679682;29;1175;-75
2023/08/02 01:40:32;;;;;;;9.55;3.75;;;;;;;16.82;67.42;99542.25;679940;29;1136;-76
2023/08/02 01:40:53;;;;;;;8.25;3.53;;;;;;;16.87;67.45;99553.56;684877;28;918;-75
2023/08/02 01:41:14;;;;;;;8.00;3.70;;;;;;;16.90;67.61;99558.78;690464;28;1247;-76
2023/08/02 01:41:35;;;;;;;6.63;3.50;;;;;;;16.96;67.58;99563.94;689626;28;1943;-76
2023/08/02 01:41:56;;;;;;;7.78;3.50;;;;;;;16.85;67.50;99552.75;685212;28;1143;-76
2023/08/02 01:42:18;;;;;;;9.85;3.63;;;;;;;16.86;67.60;99562.38;683265;28;1198;-76
2023/08/02 01:42:39;;;;;;;10.32;3.80;;;;;;;16.79;67.53;99545.78;685147;28;1113;-76
2023/08/02 01:43:00;;;;;;;9.45;4.00;;;;;;;16.80;67.65;99547.56;685304;28;839;-76
2023/08/02 01:43:20;;;;;;;9.07;3.90;;;;;;;16.81;67.64;99549.28;683737;28;1136;-76
2023/08/02 01:43:42;;;;;;;9.70;4.00;;;;;;;16.86;67.54;99572.91;685153;28;1137;-76
2023/08/02 01:44:03;;;;;;;9.02;4.00;;;;;;;16.80;67.52;99573.03;687811;28;1141;-76
2023/08/02 01:44:24;;;;;;;7.50;4.10;;;;;;;16.75;67.83;99559.94;683899;28;1575;-75
2023/08/02 01:44:45;;;;;;;5.90;3.83;;;;;;;16.76;67.79;99560.78;684881;28;1403;-76
2023/08/02 01:45:06;;;;;;;6.43;3.50;;;;;;;16.80;68.01;99567.75;679849;29;958;-75
2023/08/02 01:45:26;;;;;;;7.13;3.40;;;;;;;16.80;67.62;99573.03;681997;28;1112;-76
2023/08/02 01:45:47;;;;;;;8.13;3.57;;;;;;;16.77;67.82;99558.13;680996;28;1212;-75
2023/08/02 01:46:08;;;;;;;7.75;3.70;;;;;;;16.72;67.77;99554.72;686853;28;981;-75
2023/08/02 01:46:28;;;;;;;6.18;3.60;;;;;;;16.70;68.04;99553.84;677704;28;1454;-76
2023/08/02 01:46:49;;;;;;;6.03;3.10;;;;;;;16.79;68.06;99576.56;682520;29;1092;-76